Time;durP1;ratioP1;P1;durP2;ratioP2;P2;SDS_P1;SDS_P2;PMS_P1;PMS_P2;Temp;Humidity;BMP_temperature;BMP_pressure;BME280_temperature;BME280_humidity;BME280_pressure;Samples;Min_cycle;Max_cycle;Signal;HPM_P1;HPM_P2
2022/12/04 00:04:21;;;;;;;108.60;43.98;;;;;;;0.08;100.00;101498.09;5066950;56;1143503;-67
2022/12/04 00:09:27;;;;;;;124.27;45.27;;;;;;;0.09;100.00;101494.60;5064296;56;1143073;-66
2022/12/04 00:14:33;;;;;;;116.20;43.58;;;;;;;0.14;100.00;101497.98;5044209;56;1142972;-64
2022/12/04 00:19:39;;;;;;;127.65;47.33;;;;;;;0.18;100.00;101490.95;5044225;56;1143120;-67
2022/12/04 00:24:46;;;;;;;116.33;44.53;;;;;;;0.18;100.00;101485.75;5064414;56;1143169;-64
2022/12/04 00:29:52;;;;;;;106.77;44.73;;;;;;;0.20;100.00;101482.68;5044359;56;1143281;-64
2022/12/04 00:34:58;;;;;;;132.17;46.97;;;;;;;0.23;100.00;101478.72;4990102;56;1143243;-63
2022/12/04 00:40:04;;;;;;;99.27;39.37;;;;;;;0.28;100.00;101484.27;5026313;57;1143064;-66
2022/12/04 00:45:09;;;;;;;109.40;37.03;;;;;;;0.31;100.00;101480.72;5092184;55;1140960;-63
2022/12/04 00:50:15;;;;;;;109.60;43.93;;;;;;;0.31;100.00;101471.16;5140845;54;1142876;-64
2022/12/04 00:55:21;;;;;;;118.42;46.70;;;;;;;0.31;100.00;101469.87;5131309;53;1143029;-65
2022/12/04 01:00:27;;;;;;;107.13;42.40;;;;;;;0.35;100.00;101469.37;5217857;54;1142994;-65
2022/12/04 01:05:39;;;;;;;115.03;45.57;;;;;;;0.37;100.00;101470.64;5223836;54;1143029;-68
2022/12/04 01:10:45;;;;;;;124.40;43.10;;;;;;;0.35;100.00;101458.95;5198886;55;1143149;-64
2022/12/04 01:15:50;;;;;;;111.23;39.23;;;;;;;0.37;100.00;101450.68;5255202;54;1143131;-63
2022/12/04 01:20:56;;;;;;;112.13;39.97;;;;;;;0.40;100.00;101448.47;5269502;54;1143112;-64
2022/12/04 01:26:02;;;;;;;121.17;44.17;;;;;;;0.42;100.00;101449.30;5269429;54;1143043;-65
2022/12/04 01:31:13;;;;;;;125.22;46.85;;;;;;;0.46;100.00;101445.27;5308823;54;1143096;-67
2022/12/04 01:36:23;;;;;;;118.93;44.40;;;;;;;0.46;100.00;101449.66;5141123;54;1143520;-67
2022/12/04 01:41:31;;;;;;;122.47;42.40;;;;;;;0.46;100.00;101453.55;5168865;54;1143128;-67
2022/12/04 01:46:38;;;;;;;128.70;44.13;;;;;;;0.48;100.00;101447.84;5212147;55;1142943;-66
2022/12/04 01:51:48;;;;;;;124.40;45.67;;;;;;;0.49;100.00;101447.81;5232812;54;1143171;-64
2022/12/04 01:56:59;;;;;;;132.60;45.07;;;;;;;0.53;100.00;101444.71;5212238;55;1142992;-65
2022/12/04 02:02:15;;;;;;;125.47;45.57;;;;;;;0.52;100.00;101435.19;5186324;54;1142848;-66
2022/12/04 02:07:23;;;;;;;124.83;44.33;;;;;;;0.51;100.00;101434.77;5229057;54;1143097;-68
2022/12/04 02:12:36;;;;;;;123.70;39.43;;;;;;;0.55;100.00;101447.70;5313269;54;1143115;-66
2022/12/04 02:17:57;;;;;;;125.15;42.53;;;;;;;0.57;100.00;101439.86;5288236;54;1143154;-63
2022/12/04 02:23:32;;;;;;;126.03;46.30;;;;;;;0.61;100.00;101438.91;5292540;54;1143067;-66
2022/12/04 02:29:00;;;;;;;126.80;44.77;;;;;;;0.60;100.00;101434.59;5287798;54;1142962;-68
2022/12/04 02:34:16;;;;;;;130.47;43.30;;;;;;;0.60;100.00;101437.20;5237447;54;1142913;-66
2022/12/04 02:39:42;;;;;;;122.28;42.85;;;;;;;0.60;100.00;101428.09;5192395;55;1143057;-65
2022/12/04 02:44:55;;;;;;;122.47;41.53;;;;;;;0.62;100.00;101418.47;5238444;54;1143005;-69
2022/12/04 02:50:06;;;;;;;124.18;43.30;;;;;;;0.65;100.00;101419.70;5232683;55;1143255;-69
2022/12/04 02:55:25;;;;;;;134.53;44.53;;;;;;;0.68;100.00;101421.80;5201894;55;1143005;-64
2022/12/04 03:00:32;;;;;;;137.37;47.27;;;;;;;0.66;100.00;101413.17;5218588;54;1143040;-64
2022/12/04 03:05:45;;;;;;;130.07;44.48;;;;;;;0.64;100.00;101404.98;5251354;54;1143178;-65
2022/12/04 03:10:54;;;;;;;118.02;42.58;;;;;;;0.67;100.00;101399.27;5290408;54;1142954;-70
2022/12/04 03:16:13;;;;;;;115.63;45.13;;;;;;;0.69;100.00;101395.33;5264633;54;1143159;-66
2022/12/04 03:21:24;;;;;;;134.32;49.55;;;;;;;0.72;100.00;101398.31;5269748;54;1143023;-66
2022/12/04 03:26:34;;;;;;;127.12;41.83;;;;;;;0.72;100.00;101406.98;5270602;54;1143053;-64
2022/12/04 03:31:56;;;;;;;128.80;43.77;;;;;;;0.72;100.00;101397.86;5290800;54;1143195;-65
2022/12/04 03:37:06;;;;;;;120.90;41.50;;;;;;;0.72;100.00;101401.77;5146834;55;1143031;-67
2022/12/04 03:42:20;;;;;;;102.17;37.77;;;;;;;0.75;100.00;101399.55;5163516;54;1143100;-65
2022/12/04 03:47:54;;;;;;;116.65;45.75;;;;;;;0.78;100.00;101394.24;5303188;54;1143148;-66
2022/12/04 03:53:30;;;;;;;121.20;45.38;;;;;;;0.78;100.00;101399.00;5324032;54;1143062;-66
2022/12/04 03:58:41;;;;;;;129.30;43.77;;;;;;;0.78;100.00;101392.94;5302914;54;1142934;-65
2022/12/04 04:03:50;;;;;;;105.77;41.90;;;;;;;0.80;100.00;101389.41;5227719;54;1142942;-66
2022/12/04 04:09:00;;;;;;;107.17;41.47;;;;;;;0.82;100.00;101374.61;5232341;54;1143567;-64
2022/12/04 04:25:19;;;;;;;110.87;42.50;;;;;;;0.83;100.00;101363.31;5270257;54;1141142;-67
2022/12/04 04:30:25;;;;;;;115.50;45.43;;;;;;;0.86;100.00;101368.90;5223164;54;1143230;-65
2022/12/04 04:35:44;;;;;;;134.43;52.93;;;;;;;0.89;100.00;101377.95;5165693;55;1142937;-68
2022/12/04 04:41:10;;;;;;;108.87;45.50;;;;;;;0.92;100.00;101377.40;5125009;55;1143378;-64
2022/12/04 04:46:34;;;;;;;111.67;42.30;;;;;;;0.93;100.00;101372.60;5193528;54;1142898;-66
2022/12/04 04:51:41;;;;;;;101.30;40.33;;;;;;;0.93;100.00;101372.60;5177349;55;1142995;-65
2022/12/04 04:56:48;;;;;;;109.43;42.03;;;;;;;0.93;100.00;101373.91;5178028;55;1143074;-67
2022/12/04 05:01:54;;;;;;;109.27;41.87;;;;;;;0.98;100.00;101379.87;5129535;55;1143050;-64
2022/12/04 05:07:00;;;;;;;106.73;41.13;;;;;;;1.00;100.00;101370.72;5177340;55;1143190;-68
2022/12/04 05:12:06;;;;;;;109.87;38.97;;;;;;;1.00;100.00;101375.92;5192706;55;1143224;-63
2022/12/04 05:17:12;;;;;;;103.20;40.10;;;;;;;1.02;100.00;101366.33;5189465;56;1143092;-67
2022/12/04 05:22:20;;;;;;;100.40;41.30;;;;;;;0.99;100.00;101372.91;5155870;55;1143005;-69
2022/12/04 05:27:27;;;;;;;104.90;43.48;;;;;;;1.01;100.00;101376.34;5172866;55;1143209;-68
2022/12/04 05:32:33;;;;;;;92.53;35.13;;;;;;;1.03;100.00;101380.62;5182516;55;1142993;-63
2022/12/04 05:37:41;;;;;;;101.93;42.90;;;;;;;1.05;100.00;101377.98;5090962;56;1140918;-66
2022/12/04 05:42:46;;;;;;;103.67;39.80;;;;;;;1.06;100.00;101386.20;5094628;55;1143141;-63
2022/12/04 05:47:53;;;;;;;100.33;39.07;;;;;;;1.05;100.00;101384.05;5090216;56;1143285;-66
2022/12/04 05:52:58;;;;;;;93.63;36.13;;;;;;;1.07;100.00;101380.55;5103947;56;1143050;-63
2022/12/04 05:58:04;;;;;;;82.10;31.23;;;;;;;1.07;100.00;101372.73;5111430;56;1140852;-67
2022/12/04 06:03:13;;;;;;;93.56;35.74;;;;;;;1.09;100.00;101374.38;5148848;55;1141104;-67
2022/12/04 06:08:19;;;;;;;98.03;36.30;;;;;;;1.11;100.00;101376.95;5110561;56;1150365;-65
2022/12/04 06:13:24;;;;;;;91.67;36.70;;;;;;;1.07;100.00;101368.35;5111187;56;1140936;-69
2022/12/04 06:18:31;;;;;;;98.67;36.13;;;;;;;1.10;100.00;101383.05;5111267;55;1141022;-66
2022/12/04 06:23:36;;;;;;;80.23;32.33;;;;;;;1.09;100.00;101387.41;5131247;56;1140915;-65
2022/12/04 06:28:42;;;;;;;78.80;31.83;;;;;;;1.11;100.00;101392.14;5171851;55;1141327;-69
2022/12/04 06:33:49;;;;;;;81.93;32.40;;;;;;;1.13;100.00;101388.20;5160891;55;1140985;-65
2022/12/04 06:38:56;;;;;;;81.80;31.93;;;;;;;1.16;100.00;101388.12;5131175;55;1140955;-67
2022/12/04 06:44:02;;;;;;;79.03;30.53;;;;;;;1.15;100.00;101385.11;5166079;55;1140920;-66
2022/12/04 06:49:08;;;;;;;85.05;32.75;;;;;;;1.16;100.00;101390.73;5209406;54;1141081;-66
2022/12/04 06:54:15;;;;;;;77.53;32.33;;;;;;;1.14;100.00;101392.06;5288811;54;1141276;-67
2022/12/04 06:59:21;;;;;;;72.90;28.57;;;;;;;1.18;100.00;101401.98;5141842;55;1140968;-66
2022/12/04 07:04:27;;;;;;;63.43;27.83;;;;;;;1.18;100.00;101396.31;5154144;54;1140985;-68
2022/12/04 07:09:33;;;;;;;66.83;28.13;;;;;;;1.18;100.00;101396.31;5204957;55;1140897;-65
2022/12/04 07:14:39;;;;;;;66.97;27.82;;;;;;;1.18;100.00;101398.06;5162443;55;1141054;-67
2022/12/04 07:19:45;;;;;;;64.20;25.73;;;;;;;1.19;100.00;101395.42;5174323;55;1140919;-66
2022/12/04 07:24:50;;;;;;;61.27;25.80;;;;;;;1.20;100.00;101390.63;5123309;55;1140888;-65
2022/12/04 07:29:56;;;;;;;66.50;26.83;;;;;;;1.22;100.00;101394.02;5101994;55;1140879;-67
2022/12/04 07:35:02;;;;;;;57.43;23.20;;;;;;;1.22;100.00;101387.51;5090103;55;1141016;-68
2022/12/04 07:40:08;;;;;;;68.03;29.10;;;;;;;1.21;100.00;101398.00;5168231;55;1140943;-68
2022/12/04 07:45:15;;;;;;;61.00;26.75;;;;;;;1.21;100.00;101400.60;5175911;54;1141125;-65
2022/12/04 07:50:21;;;;;;;68.57;27.82;;;;;;;1.23;100.00;101396.18;5188946;54;1140985;-68
2022/12/04 07:55:26;;;;;;;69.37;29.90;;;;;;;1.25;100.00;101397.00;5203526;54;1141049;-66
2022/12/04 08:00:34;;;;;;;74.60;26.47;;;;;;;1.28;100.00;101396.93;5233458;54;1141021;-66
2022/12/04 08:05:40;;;;;;;77.13;30.43;;;;;;;1.27;100.00;101406.50;5181094;54;1140925;-68
2022/12/04 08:10:45;;;;;;;70.53;30.07;;;;;;;1.28;100.00;101407.36;5207769;54;1140880;-68
2022/12/04 08:15:52;;;;;;;78.63;31.50;;;;;;;1.28;100.00;101407.36;5229704;54;1140988;-66
2022/12/04 08:21:06;;;;;;;62.80;25.57;;;;;;;1.32;100.00;101415.52;5213807;54;1140877;-66
2022/12/04 08:26:13;;;;;;;85.70;36.80;;;;;;;1.37;100.00;101412.35;5213494;54;1141075;-67
2022/12/04 08:31:22;;;;;;;74.57;30.07;;;;;;;1.37;100.00;101412.35;5235337;54;1140921;-66
2022/12/04 08:36:29;;;;;;;90.85;33.40;;;;;;;1.34;100.00;101402.86;5133800;54;1140855;-68
2022/12/04 08:41:34;;;;;;;86.63;32.50;;;;;;;1.35;100.00;101398.50;5188003;54;1141260;-66
2022/12/04 08:46:40;;;;;;;72.93;29.90;;;;;;;1.38;100.00;101391.44;5123570;56;1140924;-67
2022/12/04 08:51:46;;;;;;;80.87;34.07;;;;;;;1.42;100.00;101397.43;5106742;55;1140898;-63
2022/12/04 08:56:52;;;;;;;82.70;34.43;;;;;;;1.46;100.00;101410.80;5111385;55;1141001;-63
2022/12/04 09:01:57;;;;;;;89.17;35.13;;;;;;;1.46;100.00;101406.89;5191915;55;1141075;-69
2022/12/04 09:07:03;;;;;;;83.77;33.10;;;;;;;1.47;100.00;101421.64;5217036;55;1140888;-66
2022/12/04 09:12:08;;;;;;;83.53;33.47;;;;;;;1.46;100.00;101410.80;5132184;55;1140988;-65
2022/12/04 09:17:14;;;;;;;85.97;36.67;;;;;;;1.49;100.00;101415.94;5123969;54;1141090;-64
2022/12/04 09:22:19;;;;;;;86.93;34.87;;;;;;;1.51;100.00;101410.25;5122915;55;1141101;-66
2022/12/04 09:27:25;;;;;;;75.40;32.33;;;;;;;1.54;100.00;101404.92;5113987;54;1141077;-67
2022/12/04 09:32:30;;;;;;;86.50;35.57;;;;;;;1.64;100.00;101420.75;5117784;53;1141081;-69
2022/12/04 09:37:37;;;;;;;86.10;36.63;;;;;;;1.64;100.00;101420.75;5211097;54;1140881;-66
2022/12/04 09:43:08;;;;;;;88.00;36.08;;;;;;;1.67;100.00;101418.52;5158626;55;1140728;-64
2022/12/04 09:48:16;;;;;;;83.90;35.23;;;;;;;1.66;100.00;101426.79;5035110;55;1141175;-67
2022/12/04 09:53:36;;;;;;;82.50;33.70;;;;;;;1.68;100.00;101431.48;5076760;55;1141084;-67
2022/12/04 09:59:18;;;;;;;124.70;57.27;;;;;;;1.69;100.00;101428.44;5147091;55;1140951;-68
2022/12/04 10:04:23;;;;;;;187.13;117.93;;;;;;;1.73;100.00;101419.20;5095026;55;1143009;-66
2022/12/04 10:09:50;;;;;;;105.47;53.73;;;;;;;1.74;100.00;101405.27;5119646;55;1144995;-66
2022/12/04 10:15:12;;;;;;;106.93;44.57;;;;;;;1.74;100.00;101397.88;5203173;55;1142974;-67
2022/12/04 10:20:40;;;;;;;83.10;35.60;;;;;;;1.76;100.00;101401.31;5014979;56;1142927;-68
2022/12/04 10:25:49;;;;;;;78.67;33.63;;;;;;;1.78;100.00;101393.00;4945663;57;1140777;-67
2022/12/04 10:30:59;;;;;;;84.17;36.53;;;;;;;1.84;100.00;101389.34;4899111;58;1140934;-65
2022/12/04 10:36:06;;;;;;;77.03;32.37;;;;;;;1.85;100.00;101376.27;4976137;57;1140951;-66
2022/12/04 10:41:28;;;;;;;86.87;37.80;;;;;;;1.83;100.00;101370.27;5031972;57;1140838;-65
2022/12/04 10:46:35;;;;;;;708.67;361.30;;;;;;;1.84;100.00;101367.17;4964774;57;1140916;-66
2022/12/04 10:51:43;;;;;;;204.57;109.73;;;;;;;1.87;100.00;101377.08;4983610;58;1145086;-66
2022/12/04 10:57:01;;;;;;;80.37;36.63;;;;;;;1.91;100.00;101378.72;5056196;55;1145073;-66
2022/12/04 11:02:28;;;;;;;76.70;32.30;;;;;;;1.92;100.00;101373.91;5169601;54;1140750;-67
2022/12/04 11:07:46;;;;;;;79.47;32.45;;;;;;;1.90;100.00;101374.39;5206054;53;1140817;-67
2022/12/04 11:13:01;;;;;;;78.73;33.43;;;;;;;1.90;100.00;101365.71;5152422;55;1140851;-64
2022/12/04 11:18:23;;;;;;;620.67;334.17;;;;;;;1.91;100.00;101365.67;5254652;54;1142734;-63
2022/12/04 11:23:32;;;;;;;101.77;55.00;;;;;;;1.94;100.00;101366.90;5181728;55;1144974;-66
2022/12/04 11:28:40;;;;;;;79.58;34.60;;;;;;;1.97;100.00;101359.44;5165610;55;1143286;-68
2022/12/04 11:33:49;;;;;;;72.20;30.80;;;;;;;1.96;100.00;101351.20;5245701;54;1140760;-64
2022/12/04 11:39:14;;;;;;;62.77;30.23;;;;;;;1.95;100.00;101344.28;5270345;54;1140817;-67
2022/12/04 11:44:29;;;;;;;66.77;30.37;;;;;;;1.95;100.00;101342.97;5203935;54;1140850;-68
2022/12/04 11:49:35;;;;;;;83.23;36.40;;;;;;;1.98;100.00;101341.14;5204073;54;1140935;-67
2022/12/04 11:55:02;;;;;;;77.07;35.20;;;;;;;2.01;100.00;101344.08;5224061;55;1140873;-67
2022/12/04 12:00:20;;;;;;;94.80;38.07;;;;;;;1.97;100.00;101327.69;5212580;54;1140948;-66
2022/12/04 12:06:05;;;;;;;108.15;48.30;;;;;;;1.98;100.00;101332.00;5294026;54;1141020;-64
2022/12/04 12:11:22;;;;;;;111.30;58.27;;;;;;;2.00;100.00;101335.84;5292259;54;1142895;-64
2022/12/04 12:16:44;;;;;;;90.40;39.70;;;;;;;2.00;100.00;101333.23;5293935;54;1143072;-64
2022/12/04 12:22:13;;;;;;;92.00;36.85;;;;;;;2.01;100.00;101320.15;5300326;54;1140783;-65
2022/12/04 12:27:36;;;;;;;87.82;37.30;;;;;;;1.99;100.00;101318.03;5314270;54;1140758;-67
2022/12/04 12:32:51;;;;;;;90.35;37.25;;;;;;;2.00;100.00;101334.54;5299483;53;1140784;-63
2022/12/04 12:38:06;;;;;;;91.23;35.33;;;;;;;1.99;100.00;101331.52;5213136;54;1140878;-66
2022/12/04 12:43:26;;;;;;;87.67;31.80;;;;;;;1.99;100.00;101318.03;5246988;54;1140829;-65
2022/12/04 12:49:10;;;;;;;92.47;36.30;;;;;;;1.98;100.00;101316.36;5118359;55;1140815;-67
2022/12/04 12:54:38;;;;;;;107.90;41.68;;;;;;;1.99;100.00;101327.16;5120725;56;1140803;-65
2022/12/04 12:59:51;;;;;;;94.33;37.07;;;;;;;1.98;100.00;101324.63;5071322;56;1143057;-65
2022/12/04 13:05:00;;;;;;;95.57;34.43;;;;;;;1.99;100.00;101332.83;5118017;56;1140924;-63
2022/12/04 13:10:25;;;;;;;94.20;36.03;;;;;;;1.95;100.00;101322.95;5145737;55;1140911;-64
2022/12/04 13:15:48;;;;;;;101.10;39.50;;;;;;;2.01;100.00;101328.42;5182010;55;1140940;-65
2022/12/04 13:20:58;;;;;;;102.03;36.60;;;;;;;2.01;100.00;101326.67;5181513;55;1142949;-64
2022/12/04 13:26:17;;;;;;;99.67;38.67;;;;;;;2.01;100.00;101321.45;5169883;55;1142983;-67
2022/12/04 13:31:48;;;;;;;103.50;40.57;;;;;;;2.00;100.00;101309.31;5062238;56;1140760;-65
2022/12/04 13:37:17;;;;;;;113.57;45.65;;;;;;;2.03;100.00;101294.87;5098585;55;1143195;-67
2022/12/04 13:42:26;;;;;;;116.63;41.63;;;;;;;2.03;100.00;101287.50;5147962;55;1143318;-67
2022/12/04 13:47:34;;;;;;;100.07;35.78;;;;;;;2.02;100.00;101281.88;5082232;56;1142894;-64
2022/12/04 13:52:42;;;;;;;93.00;36.63;;;;;;;2.02;100.00;101284.48;4951859;57;1143147;-67
2022/12/04 13:58:07;;;;;;;90.63;36.27;;;;;;;2.00;100.00;101277.15;4969904;57;1140989;-65
2022/12/04 14:03:38;;;;;;;107.30;41.03;;;;;;;1.97;100.00;101287.25;5126401;54;1141200;-67
2022/12/04 14:08:44;;;;;;;109.23;40.43;;;;;;;1.95;100.00;101285.58;5161313;55;1142800;-67
2022/12/04 14:13:59;;;;;;;102.17;39.10;;;;;;;1.95;100.00;101295.56;5082442;56;1143021;-63
2022/12/04 14:19:07;;;;;;;97.50;38.10;;;;;;;2.00;100.00;101301.93;5117569;56;1142956;-64
2022/12/04 14:24:38;;;;;;;107.80;41.17;;;;;;;1.97;100.00;101308.13;5191220;55;1140767;-68
2022/12/04 14:29:53;;;;;;;100.53;36.13;;;;;;;1.94;100.00;101308.20;5127001;54;1143021;-67
2022/12/04 14:34:59;;;;;;;100.93;40.50;;;;;;;1.93;100.00;101319.53;5184015;54;1142852;-67
2022/12/04 14:40:11;;;;;;;92.90;38.65;;;;;;;1.93;100.00;101324.75;5234817;54;1142926;-68
2022/12/04 14:45:27;;;;;;;94.22;37.55;;;;;;;1.94;100.00;101319.94;5200243;54;1140897;-63
2022/12/04 14:51:12;;;;;;;101.20;41.83;;;;;;;1.97;100.00;101320.31;5213384;54;1140994;-68
2022/12/04 14:57:04;;;;;;;104.97;45.53;;;;;;;2.01;100.00;101312.77;5118203;55;1143113;-68
2022/12/04 15:02:19;;;;;;;105.87;43.97;;;;;;;1.97;100.00;101319.86;4928344;57;1143070;-67
2022/12/04 15:07:29;;;;;;;104.73;42.87;;;;;;;1.98;100.00;101309.83;4948009;56;1142965;-64
2022/12/04 15:12:51;;;;;;;90.25;37.85;;;;;;;1.97;100.00;101305.52;4979964;56;1200864;-66
2022/12/04 15:18:13;;;;;;;80.65;32.60;;;;;;;1.97;100.00;101309.42;4961975;56;1140855;-63
2022/12/04 15:23:36;;;;;;;82.30;37.42;;;;;;;1.98;100.00;101313.75;4962361;56;1140696;-68
2022/12/04 15:28:52;;;;;;;90.92;39.18;;;;;;;1.96;100.00;101315.98;4862470;58;1140959;-67
2022/12/04 15:34:01;;;;;;;87.73;37.40;;;;;;;1.95;100.00;101321.66;4968165;57;1141087;-68
2022/12/04 15:39:08;;;;;;;86.70;36.13;;;;;;;1.95;100.00;101323.41;5038047;56;1140905;-67
2022/12/04 15:44:31;;;;;;;89.70;37.60;;;;;;;1.94;100.00;101309.95;4956003;56;1231377;-64
2022/12/04 15:49:36;;;;;;;;;;;;;;;1.91;100.00;101318.72;5074755;56;1140921;-63
2022/12/04 15:54:57;;;;;;;87.10;35.73;;;;;;;1.89;100.00;101316.61;5057834;56;1012823;-68
2022/12/04 16:00:07;;;;;;;94.00;38.40;;;;;;;1.86;100.00;101320.59;5020598;56;1140828;-66
2022/12/04 16:05:29;;;;;;;80.87;35.87;;;;;;;1.89;100.00;101332.25;5027952;56;1140789;-65
2022/12/04 16:10:36;;;;;;;85.47;36.17;;;;;;;1.90;100.00;101335.72;5043232;56;1141029;-64
2022/12/04 16:15:43;;;;;;;101.05;41.58;;;;;;;1.92;100.00;101342.61;5062571;56;1140866;-65
2022/12/04 16:20:49;;;;;;;87.73;34.93;;;;;;;1.91;100.00;101345.25;4955145;56;1183051;-66
2022/12/04 16:25:55;;;;;;;89.83;38.83;;;;;;;1.93;100.00;101344.77;5240965;54;1140884;-67
2022/12/04 16:31:00;;;;;;;88.50;36.83;;;;;;;1.96;100.00;101339.02;5248225;54;1140806;-64
2022/12/04 16:36:09;;;;;;;101.83;40.60;;;;;;;2.00;100.00;101338.00;5213335;53;1141011;-67
2022/12/04 16:41:20;;;;;;;87.57;37.93;;;;;;;2.00;100.00;101337.15;5206004;54;1143156;-66
2022/12/04 16:46:28;;;;;;;89.10;39.10;;;;;;;1.99;100.00;101336.30;5314921;54;1141003;-67
2022/12/04 16:51:36;;;;;;;93.87;40.10;;;;;;;1.94;100.00;101338.20;5291196;54;1140851;-66
2022/12/04 16:56:41;;;;;;;78.00;37.27;;;;;;;1.93;100.00;101325.20;5276685;54;1140916;-68
2022/12/04 17:01:49;;;;;;;81.57;37.57;;;;;;;1.93;100.00;101313.47;5278887;54;1140914;-65
2022/12/04 17:06:55;;;;;;;291.67;135.07;;;;;;;1.90;100.00;101318.31;5222149;54;1140892;-65
2022/12/04 17:12:00;;;;;;;89.50;38.67;;;;;;;1.90;100.00;101322.67;5251581;54;1145035;-66
2022/12/04 17:17:06;;;;;;;316.40;142.77;;;;;;;1.85;100.00;101330.62;5201302;55;1141110;-66
2022/12/04 17:22:13;;;;;;;105.90;48.83;;;;;;;1.86;100.00;101340.61;5177552;54;1145184;-68
2022/12/04 17:27:18;;;;;;;95.50;46.40;;;;;;;1.85;100.00;101350.63;5185109;54;1143035;-64
2022/12/04 17:32:24;;;;;;;87.80;38.30;;;;;;;1.84;100.00;101342.41;5207621;55;1140739;-65
2022/12/04 17:37:32;;;;;;;78.27;35.30;;;;;;;1.84;100.00;101343.70;5180497;54;1140773;-67
2022/12/04 17:42:38;;;;;;;86.53;33.67;;;;;;;1.88;100.00;101347.50;5240162;54;1140786;-66
2022/12/04 17:47:43;;;;;;;83.60;35.03;;;;;;;1.84;100.00;101334.58;5240050;54;1185569;-65
2022/12/04 17:52:49;;;;;;;88.83;38.27;;;;;;;1.82;100.00;101331.19;5181929;54;1140975;-66
2022/12/04 17:57:55;;;;;;;78.30;32.33;;;;;;;1.80;100.00;101328.62;5178263;54;1140864;-65
2022/12/04 18:03:00;;;;;;;92.40;38.13;;;;;;;1.80;100.00;101331.67;5211075;55;1140786;-67
2022/12/04 18:08:06;;;;;;;99.83;41.87;;;;;;;1.80;100.00;101336.45;5185898;55;1141048;-67
2022/12/04 18:13:12;;;;;;;84.50;37.93;;;;;;;1.83;100.00;101336.36;5091802;55;1140767;-64
2022/12/04 18:18:17;;;;;;;101.33;41.63;;;;;;;1.80;100.00;101328.62;5160714;55;1141529;-66
2022/12/04 18:23:23;;;;;;;102.93;42.20;;;;;;;1.77;100.00;101337.83;5177102;55;1143630;-67
2022/12/04 18:28:31;;;;;;;104.83;41.23;;;;;;;1.81;100.00;101335.99;5187524;54;1142858;-64
2022/12/04 18:33:40;;;;;;;82.78;35.30;;;;;;;1.86;100.00;101332.34;5184425;54;1143697;-63
2022/12/04 18:38:46;;;;;;;97.93;39.27;;;;;;;1.89;100.00;101339.22;5198420;55;1140683;-67
2022/12/04 18:43:53;;;;;;;97.27;40.97;;;;;;;1.83;100.00;101338.97;5183871;55;1140807;-62
2022/12/04 18:48:59;;;;;;;92.63;40.70;;;;;;;1.79;100.00;101346.91;5178968;54;1140773;-67
2022/12/04 18:54:15;;;;;;;93.33;40.70;;;;;;;1.78;100.00;101348.67;5120880;55;1248929;-64
2022/12/04 18:59:27;;;;;;;93.23;36.67;;;;;;;1.78;100.00;101350.42;5102540;55;1141056;-64
2022/12/04 19:04:33;;;;;;;98.03;36.90;;;;;;;1.76;100.00;101346.55;5094117;55;1187311;-64
2022/12/04 19:09:39;;;;;;;129.30;43.17;;;;;;;1.72;100.00;101345.77;5142692;55;1140815;-67
2022/12/04 19:14:45;;;;;;;119.53;42.25;;;;;;;1.71;100.00;101358.84;5275742;54;1142924;-65
2022/12/04 19:19:50;;;;;;;86.73;37.63;;;;;;;1.71;100.00;101360.15;5266483;54;1142884;-65
2022/12/04 19:24:56;;;;;;;83.67;34.30;;;;;;;1.73;100.00;101378.77;5240024;54;1140758;-66
2022/12/04 19:30:02;;;;;;;80.17;35.47;;;;;;;1.72;100.00;101374.45;5094122;55;1140999;-65
2022/12/04 19:35:08;;;;;;;86.93;35.37;;;;;;;1.72;100.00;101387.49;5155165;55;1245233;-66
2022/12/04 19:40:15;;;;;;;88.13;36.33;;;;;;;1.70;100.00;101406.67;5101332;55;1140865;-67
2022/12/04 19:45:20;;;;;;;102.20;37.53;;;;;;;1.67;100.00;101398.52;5189253;55;1141060;-65
2022/12/04 19:50:27;;;;;;;79.23;34.37;;;;;;;1.65;100.00;101400.31;5178215;55;1143065;-66
2022/12/04 19:55:34;;;;;;;78.22;34.08;;;;;;;1.63;100.00;101409.91;5178688;55;1140922;-68
2022/12/04 20:00:40;;;;;;;87.87;37.43;;;;;;;1.66;100.00;101405.93;5198741;55;1140804;-66
2022/12/04 20:05:46;;;;;;;87.80;34.53;;;;;;;1.72;100.00;101394.45;5178513;55;1140929;-68
2022/12/04 20:10:51;;;;;;;92.57;37.40;;;;;;;1.75;100.00;101400.45;5174220;55;1140763;-65
2022/12/04 20:16:00;;;;;;;95.10;39.37;;;;;;;1.76;100.00;101395.65;5195072;55;1247493;-65
2022/12/04 20:21:10;;;;;;;82.95;32.73;;;;;;;1.74;100.00;101403.95;5090576;55;1178829;-65
2022/12/04 20:26:17;;;;;;;73.50;31.83;;;;;;;1.72;100.00;101400.53;5130184;55;1140992;-68
2022/12/04 20:31:33;;;;;;;97.27;34.97;;;;;;;1.71;100.00;101387.08;5160793;54;1141027;-67
2022/12/04 20:36:42;;;;;;;69.65;32.70;;;;;;;1.71;100.00;101378.41;5093270;55;1181377;-65
2022/12/04 20:41:49;;;;;;;80.33;34.07;;;;;;;1.68;100.00;101365.00;5105828;55;1140911;-69
2022/12/04 20:46:54;;;;;;;76.07;34.23;;;;;;;1.69;100.00;101368.45;5209272;54;1140893;-66
2022/12/04 20:52:00;;;;;;;89.53;38.33;;;;;;;1.66;100.00;101359.45;5189083;55;1140753;-65
2022/12/04 20:57:06;;;;;;;82.00;33.43;;;;;;;1.67;100.00;101354.64;5209333;54;1140700;-67
2022/12/04 21:02:13;;;;;;;73.97;34.43;;;;;;;1.67;100.00;101354.64;5212058;55;1141074;-67
2022/12/04 21:07:19;;;;;;;90.00;35.47;;;;;;;1.67;100.00;101338.55;5166611;55;1140899;-67
2022/12/04 21:17:48;;;;;;;100.53;39.87;;;;;;;1.62;100.00;101327.38;5196680;55;1141081;-65
2022/12/04 21:22:54;;;;;;;76.67;34.43;;;;;;;1.59;100.00;101318.78;5228653;54;1143030;-65
2022/12/04 21:28:01;;;;;;;75.83;34.37;;;;;;;1.58;100.00;101340.09;5209256;55;1140759;-66
2022/12/04 21:33:06;;;;;;;67.40;32.80;;;;;;;1.57;100.00;101339.67;5211398;54;1140756;-66
2022/12/04 21:38:12;;;;;;;68.83;31.57;;;;;;;1.57;100.00;101351.85;5300163;54;1140875;-66
2022/12/04 21:43:18;;;;;;;65.63;29.80;;;;;;;1.57;100.00;101351.41;5298094;54;1140984;-67
2022/12/04 21:48:24;;;;;;;59.80;27.43;;;;;;;1.58;100.00;101336.17;5293535;54;1140819;-67
2022/12/04 21:53:31;;;;;;;69.45;29.50;;;;;;;1.51;100.00;101329.44;5285707;54;1141012;-69
2022/12/04 21:58:36;;;;;;;59.47;27.30;;;;;;;1.55;100.00;101357.11;5294789;54;1140802;-66
2022/12/04 22:03:45;;;;;;;67.78;28.45;;;;;;;1.56;100.00;101347.09;5258224;54;1140964;-66
2022/12/04 22:08:50;;;;;;;66.67;28.70;;;;;;;1.53;100.00;101345.04;5303079;54;1140731;-64
2022/12/04 22:13:56;;;;;;;65.67;28.83;;;;;;;1.53;100.00;101341.95;5323643;54;1140900;-67
2022/12/04 22:19:02;;;;;;;66.63;32.33;;;;;;;1.56;100.00;101348.39;5281216;54;1141407;-66
2022/12/04 22:24:09;;;;;;;58.27;28.50;;;;;;;1.58;100.00;101327.50;5187314;55;1140939;-63
2022/12/04 22:29:14;;;;;;;63.40;29.50;;;;;;;1.57;100.00;101321.42;5121834;55;1140967;-68
2022/12/04 22:34:20;;;;;;;70.10;30.55;;;;;;;1.51;100.00;101316.41;5101823;56;1140746;-64
2022/12/04 22:39:26;;;;;;;60.97;29.33;;;;;;;1.53;100.00;101339.34;5102689;55;1140793;-65
2022/12/04 22:44:31;;;;;;;69.03;30.33;;;;;;;1.53;100.00;101338.04;5197088;54;1140926;-68
2022/12/04 22:49:37;;;;;;;63.83;28.70;;;;;;;1.57;100.00;101311.45;5287947;54;1147234;-67
2022/12/04 22:54:43;;;;;;;56.50;27.87;;;;;;;1.56;100.00;101305.38;5133678;54;1140918;-64
2022/12/04 22:59:48;;;;;;;63.65;28.75;;;;;;;1.53;100.00;101292.90;5094719;56;1140958;-68
2022/12/04 23:04:54;;;;;;;60.90;27.80;;;;;;;1.52;100.00;101303.78;5199774;55;1140874;-68
2022/12/04 23:10:00;;;;;;;60.03;29.23;;;;;;;1.53;100.00;101311.15;5127310;55;1140889;-67
2022/12/04 23:15:06;;;;;;;57.57;27.77;;;;;;;1.55;100.00;101309.33;5122357;55;1140861;-66